sensor_id;sensor_type;location;lat;lon;timestamp;P1;durP1;ratioP1;P2;durP2;ratioP2
35306;SDS011;21420;52.196;21.416;2022-11-25T00:01:12;77.60;;;35.03;;
35306;SDS011;21420;52.196;21.416;2022-11-25T00:03:45;81.32;;;36.25;;
35306;SDS011;21420;52.196;21.416;2022-11-25T00:08:52;73.28;;;35.45;;
35306;SDS011;21420;52.196;21.416;2022-11-25T00:11:26;83.15;;;36.65;;
35306;SDS011;21420;52.196;21.416;2022-11-25T00:13:54;74.27;;;36.95;;
35306;SDS011;21420;52.196;21.416;2022-11-25T00:16:23;82.85;;;36.73;;
35306;SDS011;21420;52.196;21.416;2022-11-25T00:18:52;83.85;;;38.70;;
35306;SDS011;21420;52.196;21.416;2022-11-25T00:21:21;87.08;;;38.73;;
35306;SDS011;21420;52.196;21.416;2022-11-25T00:23:58;88.47;;;36.75;;
35306;SDS011;21420;52.196;21.416;2022-11-25T00:26:24;81.63;;;37.08;;
35306;SDS011;21420;52.196;21.416;2022-11-25T00:28:52;88.17;;;38.85;;
35306;SDS011;21420;52.196;21.416;2022-11-25T00:31:23;84.37;;;37.67;;
35306;SDS011;21420;52.196;21.416;2022-11-25T00:33:53;86.63;;;37.42;;
35306;SDS011;21420;52.196;21.416;2022-11-25T00:36:20;91.90;;;40.50;;
35306;SDS011;21420;52.196;21.416;2022-11-25T00:38:53;89.95;;;40.95;;
35306;SDS011;21420;52.196;21.416;2022-11-25T00:41:25;87.27;;;38.80;;
35306;SDS011;21420;52.196;21.416;2022-11-25T00:44:12;92.65;;;41.25;;
35306;SDS011;21420;52.196;21.416;2022-11-25T00:47:07;95.17;;;42.33;;
35306;SDS011;21420;52.196;21.416;2022-11-25T00:49:47;92.42;;;39.80;;
35306;SDS011;21420;52.196;21.416;2022-11-25T00:52:15;97.20;;;42.35;;
35306;SDS011;21420;52.196;21.416;2022-11-25T00:54:45;92.45;;;41.00;;
35306;SDS011;21420;52.196;21.416;2022-11-25T00:57:13;96.10;;;41.05;;
35306;SDS011;21420;52.196;21.416;2022-11-25T00:59:41;85.50;;;39.25;;
35306;SDS011;21420;52.196;21.416;2022-11-25T01:02:09;89.60;;;40.15;;
35306;SDS011;21420;52.196;21.416;2022-11-25T01:04:36;90.47;;;42.05;;
35306;SDS011;21420;52.196;21.416;2022-11-25T01:07:03;89.60;;;41.13;;
35306;SDS011;21420;52.196;21.416;2022-11-25T01:09:30;95.87;;;42.15;;
35306;SDS011;21420;52.196;21.416;2022-11-25T01:11:56;95.62;;;41.08;;
35306;SDS011;21420;52.196;21.416;2022-11-25T01:14:23;92.72;;;40.30;;
35306;SDS011;21420;52.196;21.416;2022-11-25T01:16:49;89.25;;;40.98;;
35306;SDS011;21420;52.196;21.416;2022-11-25T01:19:16;100.40;;;39.83;;
35306;SDS011;21420;52.196;21.416;2022-11-25T01:21:43;99.85;;;42.40;;
35306;SDS011;21420;52.196;21.416;2022-11-25T01:24:11;88.33;;;39.40;;
35306;SDS011;21420;52.196;21.416;2022-11-25T01:26:39;100.85;;;42.80;;
35306;SDS011;21420;52.196;21.416;2022-11-25T01:29:06;97.08;;;41.77;;
35306;SDS011;21420;52.196;21.416;2022-11-25T01:31:42;97.30;;;42.00;;
35306;SDS011;21420;52.196;21.416;2022-11-25T01:34:13;95.62;;;39.98;;
35306;SDS011;21420;52.196;21.416;2022-11-25T01:36:44;94.50;;;41.28;;
35306;SDS011;21420;52.196;21.416;2022-11-25T01:39:18;93.97;;;42.23;;
35306;SDS011;21420;52.196;21.416;2022-11-25T01:41:47;101.78;;;40.83;;
35306;SDS011;21420;52.196;21.416;2022-11-25T01:44:18;101.00;;;41.75;;
35306;SDS011;21420;52.196;21.416;2022-11-25T01:46:56;87.08;;;38.42;;
35306;SDS011;21420;52.196;21.416;2022-11-25T01:55:01;93.00;;;39.80;;
35306;SDS011;21420;52.196;21.416;2022-11-25T01:57:41;90.60;;;41.83;;
35306;SDS011;21420;52.196;21.416;2022-11-25T02:00:13;96.20;;;40.00;;
35306;SDS011;21420;52.196;21.416;2022-11-25T02:02:43;95.72;;;38.73;;
35306;SDS011;21420;52.196;21.416;2022-11-25T02:05:12;99.95;;;42.70;;
35306;SDS011;21420;52.196;21.416;2022-11-25T02:07:44;97.00;;;43.13;;
35306;SDS011;21420;52.196;21.416;2022-11-25T02:10:24;100.10;;;43.33;;
35306;SDS011;21420;52.196;21.416;2022-11-25T02:12:50;95.80;;;38.70;;
35306;SDS011;21420;52.196;21.416;2022-11-25T02:15:17;92.42;;;39.38;;
35306;SDS011;21420;52.196;21.416;2022-11-25T02:17:46;87.22;;;38.70;;
35306;SDS011;21420;52.196;21.416;2022-11-25T02:20:16;82.45;;;35.68;;
35306;SDS011;21420;52.196;21.416;2022-11-25T02:25:44;75.40;;;35.38;;
35306;SDS011;21420;52.196;21.416;2022-11-25T02:28:14;78.50;;;35.90;;
35306;SDS011;21420;52.196;21.416;2022-11-25T02:30:49;76.10;;;35.00;;
35306;SDS011;21420;52.196;21.416;2022-11-25T02:33:16;76.30;;;36.33;;
35306;SDS011;21420;52.196;21.416;2022-11-25T02:35:49;77.67;;;34.00;;
35306;SDS011;21420;52.196;21.416;2022-11-25T02:38:29;82.57;;;35.40;;
35306;SDS011;21420;52.196;21.416;2022-11-25T02:43:45;70.03;;;32.45;;
35306;SDS011;21420;52.196;21.416;2022-11-25T02:46:12;78.52;;;36.35;;
35306;SDS011;21420;52.196;21.416;2022-11-25T02:48:43;80.50;;;34.35;;
35306;SDS011;21420;52.196;21.416;2022-11-25T02:51:11;79.32;;;34.35;;
35306;SDS011;21420;52.196;21.416;2022-11-25T02:53:40;82.65;;;35.33;;
35306;SDS011;21420;52.196;21.416;2022-11-25T02:56:07;76.20;;;33.40;;
35306;SDS011;21420;52.196;21.416;2022-11-25T02:58:34;80.30;;;35.23;;
35306;SDS011;21420;52.196;21.416;2022-11-25T03:01:01;77.05;;;34.67;;
35306;SDS011;21420;52.196;21.416;2022-11-25T03:03:27;77.20;;;33.42;;
35306;SDS011;21420;52.196;21.416;2022-11-25T03:05:53;79.32;;;34.15;;
35306;SDS011;21420;52.196;21.416;2022-11-25T03:08:19;84.58;;;34.55;;
35306;SDS011;21420;52.196;21.416;2022-11-25T03:10:46;76.05;;;31.87;;
35306;SDS011;21420;52.196;21.416;2022-11-25T03:13:13;70.32;;;31.07;;
35306;SDS011;21420;52.196;21.416;2022-11-25T03:19:16;80.67;;;33.20;;
35306;SDS011;21420;52.196;21.416;2022-11-25T03:21:42;76.17;;;32.70;;
35306;SDS011;21420;52.196;21.416;2022-11-25T03:24:08;77.62;;;32.50;;
35306;SDS011;21420;52.196;21.416;2022-11-25T03:26:35;75.83;;;31.90;;
35306;SDS011;21420;52.196;21.416;2022-11-25T03:29:02;81.00;;;33.60;;
35306;SDS011;21420;52.196;21.416;2022-11-25T03:31:28;74.85;;;32.50;;
35306;SDS011;21420;52.196;21.416;2022-11-25T03:33:54;80.80;;;33.42;;
35306;SDS011;21420;52.196;21.416;2022-11-25T03:36:20;71.35;;;31.20;;
35306;SDS011;21420;52.196;21.416;2022-11-25T03:38:47;72.58;;;30.32;;
35306;SDS011;21420;52.196;21.416;2022-11-25T03:41:13;73.75;;;31.25;;
35306;SDS011;21420;52.196;21.416;2022-11-25T03:43:39;72.30;;;31.00;;
35306;SDS011;21420;52.196;21.416;2022-11-25T03:46:06;71.47;;;31.10;;
35306;SDS011;21420;52.196;21.416;2022-11-25T03:48:33;83.40;;;33.02;;
35306;SDS011;21420;52.196;21.416;2022-11-25T03:50:59;76.40;;;32.10;;
35306;SDS011;21420;52.196;21.416;2022-11-25T03:53:26;86.97;;;33.98;;
35306;SDS011;21420;52.196;21.416;2022-11-25T03:55:52;82.72;;;35.85;;
35306;SDS011;21420;52.196;21.416;2022-11-25T03:58:20;80.20;;;34.95;;
35306;SDS011;21420;52.196;21.416;2022-11-25T04:00:47;87.90;;;34.05;;
35306;SDS011;21420;52.196;21.416;2022-11-25T04:03:13;97.72;;;36.33;;
35306;SDS011;21420;52.196;21.416;2022-11-25T04:05:40;96.90;;;36.28;;
35306;SDS011;21420;52.196;21.416;2022-11-25T04:08:06;85.22;;;34.98;;
35306;SDS011;21420;52.196;21.416;2022-11-25T04:10:33;82.62;;;35.38;;
35306;SDS011;21420;52.196;21.416;2022-11-25T04:13:00;91.85;;;36.60;;
35306;SDS011;21420;52.196;21.416;2022-11-25T04:15:28;86.85;;;34.48;;
35306;SDS011;21420;52.196;21.416;2022-11-25T04:17:55;88.47;;;34.92;;
35306;SDS011;21420;52.196;21.416;2022-11-25T04:20:22;95.47;;;35.17;;
35306;SDS011;21420;52.196;21.416;2022-11-25T04:22:53;89.00;;;34.80;;
35306;SDS011;21420;52.196;21.416;2022-11-25T04:25:20;85.55;;;34.33;;
35306;SDS011;21420;52.196;21.416;2022-11-25T04:27:47;81.02;;;33.08;;
35306;SDS011;21420;52.196;21.416;2022-11-25T04:30:15;87.25;;;33.55;;
35306;SDS011;21420;52.196;21.416;2022-11-25T04:32:41;88.97;;;32.17;;
35306;SDS011;21420;52.196;21.416;2022-11-25T04:35:08;91.57;;;33.73;;
35306;SDS011;21420;52.196;21.416;2022-11-25T04:37:34;91.50;;;35.83;;
35306;SDS011;21420;52.196;21.416;2022-11-25T04:40:01;96.67;;;36.15;;
35306;SDS011;21420;52.196;21.416;2022-11-25T04:42:28;84.90;;;33.85;;
35306;SDS011;21420;52.196;21.416;2022-11-25T04:44:59;93.25;;;35.52;;
35306;SDS011;21420;52.196;21.416;2022-11-25T04:47:28;92.10;;;33.47;;
35306;SDS011;21420;52.196;21.416;2022-11-25T04:49:54;95.07;;;36.30;;
35306;SDS011;21420;52.196;21.416;2022-11-25T04:52:21;89.90;;;35.55;;
35306;SDS011;21420;52.196;21.416;2022-11-25T04:54:47;92.08;;;34.43;;
35306;SDS011;21420;52.196;21.416;2022-11-25T04:57:14;80.17;;;32.58;;
35306;SDS011;21420;52.196;21.416;2022-11-25T04:59:41;87.15;;;34.88;;
35306;SDS011;21420;52.196;21.416;2022-11-25T05:02:23;88.25;;;34.38;;
35306;SDS011;21420;52.196;21.416;2022-11-25T05:04:54;75.70;;;31.80;;
35306;SDS011;21420;52.196;21.416;2022-11-25T05:07:22;81.70;;;31.77;;
35306;SDS011;21420;52.196;21.416;2022-11-25T05:09:51;85.17;;;33.42;;
35306;SDS011;21420;52.196;21.416;2022-11-25T05:12:21;96.08;;;36.08;;
35306;SDS011;21420;52.196;21.416;2022-11-25T05:14:50;91.78;;;35.58;;
35306;SDS011;21420;52.196;21.416;2022-11-25T05:17:18;80.25;;;32.73;;
35306;SDS011;21420;52.196;21.416;2022-11-25T05:19:47;81.10;;;32.78;;
35306;SDS011;21420;52.196;21.416;2022-11-25T05:22:15;78.57;;;30.82;;
35306;SDS011;21420;52.196;21.416;2022-11-25T05:27:11;85.30;;;33.42;;
35306;SDS011;21420;52.196;21.416;2022-11-25T05:29:37;90.80;;;33.65;;
35306;SDS011;21420;52.196;21.416;2022-11-25T05:32:05;89.85;;;33.53;;
35306;SDS011;21420;52.196;21.416;2022-11-25T05:34:32;89.20;;;33.73;;
35306;SDS011;21420;52.196;21.416;2022-11-25T05:36:58;79.77;;;32.33;;
35306;SDS011;21420;52.196;21.416;2022-11-25T05:39:25;77.53;;;31.17;;
35306;SDS011;21420;52.196;21.416;2022-11-25T05:42:09;82.27;;;33.95;;
35306;SDS011;21420;52.196;21.416;2022-11-25T05:44:36;77.03;;;32.33;;
35306;SDS011;21420;52.196;21.416;2022-11-25T05:47:03;87.10;;;32.10;;
35306;SDS011;21420;52.196;21.416;2022-11-25T05:49:29;91.72;;;33.08;;
35306;SDS011;21420;52.196;21.416;2022-11-25T05:51:55;80.07;;;31.97;;
35306;SDS011;21420;52.196;21.416;2022-11-25T05:54:22;91.00;;;34.00;;
35306;SDS011;21420;52.196;21.416;2022-11-25T05:56:49;93.05;;;34.20;;
35306;SDS011;21420;52.196;21.416;2022-11-25T05:59:29;89.70;;;34.33;;
35306;SDS011;21420;52.196;21.416;2022-11-25T06:02:06;88.55;;;31.77;;
35306;SDS011;21420;52.196;21.416;2022-11-25T06:04:32;87.57;;;34.48;;
35306;SDS011;21420;52.196;21.416;2022-11-25T06:06:58;86.55;;;32.88;;
35306;SDS011;21420;52.196;21.416;2022-11-25T06:09:25;87.12;;;33.15;;
35306;SDS011;21420;52.196;21.416;2022-11-25T06:11:52;91.75;;;35.33;;
35306;SDS011;21420;52.196;21.416;2022-11-25T06:14:18;91.28;;;33.78;;
35306;SDS011;21420;52.196;21.416;2022-11-25T06:16:45;95.97;;;35.20;;
35306;SDS011;21420;52.196;21.416;2022-11-25T06:19:18;83.42;;;33.63;;
35306;SDS011;21420;52.196;21.416;2022-11-25T06:21:45;95.38;;;33.95;;
35306;SDS011;21420;52.196;21.416;2022-11-25T06:24:11;93.33;;;36.42;;
35306;SDS011;21420;52.196;21.416;2022-11-25T06:26:39;90.62;;;34.70;;
35306;SDS011;21420;52.196;21.416;2022-11-25T06:29:05;92.65;;;36.10;;
35306;SDS011;21420;52.196;21.416;2022-11-25T06:31:31;98.50;;;36.95;;
35306;SDS011;21420;52.196;21.416;2022-11-25T06:33:59;93.72;;;37.30;;
35306;SDS011;21420;52.196;21.416;2022-11-25T06:36:26;90.30;;;34.78;;
35306;SDS011;21420;52.196;21.416;2022-11-25T06:38:52;100.50;;;38.75;;
35306;SDS011;21420;52.196;21.416;2022-11-25T06:41:20;94.60;;;35.03;;
35306;SDS011;21420;52.196;21.416;2022-11-25T06:43:47;99.22;;;38.08;;
35306;SDS011;21420;52.196;21.416;2022-11-25T06:46:14;102.40;;;37.60;;
35306;SDS011;21420;52.196;21.416;2022-11-25T06:48:43;105.50;;;41.23;;
35306;SDS011;21420;52.196;21.416;2022-11-25T06:51:10;98.87;;;38.38;;
35306;SDS011;21420;52.196;21.416;2022-11-25T06:53:40;109.22;;;42.03;;
35306;SDS011;21420;52.196;21.416;2022-11-25T06:58:46;115.17;;;45.00;;
35306;SDS011;21420;52.196;21.416;2022-11-25T07:01:18;99.97;;;40.95;;
35306;SDS011;21420;52.196;21.416;2022-11-25T07:03:51;116.12;;;43.02;;
35306;SDS011;21420;52.196;21.416;2022-11-25T07:06:20;108.75;;;38.90;;
35306;SDS011;21420;52.196;21.416;2022-11-25T07:08:47;107.52;;;40.60;;
35306;SDS011;21420;52.196;21.416;2022-11-25T07:11:25;118.97;;;45.12;;
35306;SDS011;21420;52.196;21.416;2022-11-25T07:13:59;105.22;;;40.52;;
35306;SDS011;21420;52.196;21.416;2022-11-25T07:16:29;112.32;;;43.52;;
35306;SDS011;21420;52.196;21.416;2022-11-25T07:18:57;107.55;;;43.80;;
35306;SDS011;21420;52.196;21.416;2022-11-25T07:21:28;104.92;;;40.17;;
35306;SDS011;21420;52.196;21.416;2022-11-25T07:23:57;100.62;;;41.80;;
35306;SDS011;21420;52.196;21.416;2022-11-25T07:26:27;93.75;;;38.70;;
35306;SDS011;21420;52.196;21.416;2022-11-25T07:29:04;108.37;;;41.95;;
35306;SDS011;21420;52.196;21.416;2022-11-25T07:31:35;107.22;;;40.90;;
35306;SDS011;21420;52.196;21.416;2022-11-25T07:34:08;105.95;;;41.60;;
35306;SDS011;21420;52.196;21.416;2022-11-25T07:36:38;114.90;;;42.88;;
35306;SDS011;21420;52.196;21.416;2022-11-25T07:39:12;98.72;;;39.27;;
35306;SDS011;21420;52.196;21.416;2022-11-25T07:41:42;201.65;;;96.42;;
35306;SDS011;21420;52.196;21.416;2022-11-25T07:44:10;109.75;;;47.40;;
35306;SDS011;21420;52.196;21.416;2022-11-25T07:46:52;187.85;;;94.67;;
35306;SDS011;21420;52.196;21.416;2022-11-25T07:49:19;696.58;;;463.55;;
35306;SDS011;21420;52.196;21.416;2022-11-25T07:51:50;300.02;;;165.70;;
35306;SDS011;21420;52.196;21.416;2022-11-25T07:54:19;432.02;;;263.65;;
35306;SDS011;21420;52.196;21.416;2022-11-25T07:56:47;183.70;;;68.78;;
35306;SDS011;21420;52.196;21.416;2022-11-25T07:59:16;117.20;;;48.40;;
35306;SDS011;21420;52.196;21.416;2022-11-25T08:01:44;73.55;;;34.18;;
35306;SDS011;21420;52.196;21.416;2022-11-25T08:04:11;85.57;;;36.05;;
35306;SDS011;21420;52.196;21.416;2022-11-25T08:06:40;97.70;;;43.55;;
35306;SDS011;21420;52.196;21.416;2022-11-25T08:09:09;80.90;;;38.08;;
35306;SDS011;21420;52.196;21.416;2022-11-25T08:11:39;75.42;;;34.60;;
35306;SDS011;21420;52.196;21.416;2022-11-25T08:14:06;77.15;;;32.85;;
35306;SDS011;21420;52.196;21.416;2022-11-25T08:16:34;96.25;;;41.70;;
35306;SDS011;21420;52.196;21.416;2022-11-25T08:19:02;113.52;;;41.70;;
35306;SDS011;21420;52.196;21.416;2022-11-25T08:21:31;75.20;;;35.00;;
35306;SDS011;21420;52.196;21.416;2022-11-25T08:23:58;82.97;;;37.00;;
35306;SDS011;21420;52.196;21.416;2022-11-25T08:26:28;83.62;;;37.33;;
35306;SDS011;21420;52.196;21.416;2022-11-25T08:28:58;53.15;;;27.10;;
35306;SDS011;21420;52.196;21.416;2022-11-25T08:31:31;57.10;;;27.58;;
35306;SDS011;21420;52.196;21.416;2022-11-25T08:33:59;62.55;;;30.97;;
35306;SDS011;21420;52.196;21.416;2022-11-25T08:36:26;64.67;;;33.42;;
35306;SDS011;21420;52.196;21.416;2022-11-25T08:38:54;53.17;;;28.50;;
35306;SDS011;21420;52.196;21.416;2022-11-25T08:43:59;70.47;;;33.95;;
35306;SDS011;21420;52.196;21.416;2022-11-25T08:46:29;82.92;;;38.92;;
35306;SDS011;21420;52.196;21.416;2022-11-25T08:48:59;48.90;;;26.68;;
35306;SDS011;21420;52.196;21.416;2022-11-25T08:51:29;50.10;;;27.27;;
35306;SDS011;21420;52.196;21.416;2022-11-25T08:53:58;51.77;;;27.15;;
35306;SDS011;21420;52.196;21.416;2022-11-25T08:56:27;52.10;;;27.40;;
35306;SDS011;21420;52.196;21.416;2022-11-25T08:58:54;50.88;;;26.85;;
35306;SDS011;21420;52.196;21.416;2022-11-25T09:01:21;51.20;;;29.35;;
35306;SDS011;21420;52.196;21.416;2022-11-25T09:03:50;51.77;;;27.62;;
35306;SDS011;21420;52.196;21.416;2022-11-25T09:06:20;52.75;;;28.15;;
35306;SDS011;21420;52.196;21.416;2022-11-25T09:08:47;54.80;;;28.80;;
35306;SDS011;21420;52.196;21.416;2022-11-25T09:11:15;53.17;;;27.50;;
35306;SDS011;21420;52.196;21.416;2022-11-25T09:13:41;50.10;;;27.85;;
35306;SDS011;21420;52.196;21.416;2022-11-25T09:16:08;51.60;;;29.32;;
35306;SDS011;21420;52.196;21.416;2022-11-25T09:18:34;53.87;;;27.35;;
35306;SDS011;21420;52.196;21.416;2022-11-25T09:21:06;53.70;;;28.85;;
35306;SDS011;21420;52.196;21.416;2022-11-25T09:23:34;51.65;;;27.48;;
35306;SDS011;21420;52.196;21.416;2022-11-25T09:26:00;52.13;;;28.10;;
35306;SDS011;21420;52.196;21.416;2022-11-25T09:28:26;50.63;;;26.85;;
35306;SDS011;21420;52.196;21.416;2022-11-25T09:30:53;52.38;;;26.93;;
35306;SDS011;21420;52.196;21.416;2022-11-25T09:33:19;49.88;;;27.35;;
35306;SDS011;21420;52.196;21.416;2022-11-25T09:35:46;50.73;;;27.32;;
35306;SDS011;21420;52.196;21.416;2022-11-25T09:38:14;51.42;;;26.97;;
35306;SDS011;21420;52.196;21.416;2022-11-25T09:49:27;47.58;;;25.05;;
35306;SDS011;21420;52.196;21.416;2022-11-25T09:52:22;46.95;;;26.35;;
35306;SDS011;21420;52.196;21.416;2022-11-25T09:55:20;52.20;;;26.50;;
35306;SDS011;21420;52.196;21.416;2022-11-25T10:00:43;52.03;;;25.30;;
35306;SDS011;21420;52.196;21.416;2022-11-25T10:03:17;48.17;;;25.80;;
35306;SDS011;21420;52.196;21.416;2022-11-25T10:06:07;48.35;;;24.75;;
35306;SDS011;21420;52.196;21.416;2022-11-25T10:08:49;43.92;;;24.95;;
35306;SDS011;21420;52.196;21.416;2022-11-25T10:11:26;49.30;;;26.65;;
35306;SDS011;21420;52.196;21.416;2022-11-25T10:20:11;51.70;;;25.15;;
35306;SDS011;21420;52.196;21.416;2022-11-25T10:22:54;50.35;;;26.50;;
35306;SDS011;21420;52.196;21.416;2022-11-25T10:25:29;54.25;;;27.42;;
35306;SDS011;21420;52.196;21.416;2022-11-25T10:28:20;48.35;;;26.07;;
35306;SDS011;21420;52.196;21.416;2022-11-25T10:30:54;50.05;;;28.05;;
35306;SDS011;21420;52.196;21.416;2022-11-25T10:44:35;49.73;;;26.82;;
35306;SDS011;21420;52.196;21.416;2022-11-25T10:53:20;53.08;;;26.12;;
35306;SDS011;21420;52.196;21.416;2022-11-25T10:56:01;51.42;;;26.75;;
35306;SDS011;21420;52.196;21.416;2022-11-25T10:58:37;48.60;;;26.97;;
35306;SDS011;21420;52.196;21.416;2022-11-25T11:01:05;54.30;;;27.85;;
35306;SDS011;21420;52.196;21.416;2022-11-25T11:03:45;52.83;;;26.30;;
35306;SDS011;21420;52.196;21.416;2022-11-25T11:06:32;54.77;;;26.48;;
35306;SDS011;21420;52.196;21.416;2022-11-25T11:09:04;52.27;;;24.90;;
35306;SDS011;21420;52.196;21.416;2022-11-25T11:11:30;55.50;;;26.90;;
35306;SDS011;21420;52.196;21.416;2022-11-25T11:16:46;53.83;;;27.55;;
35306;SDS011;21420;52.196;21.416;2022-11-25T11:19:24;56.23;;;28.23;;
35306;SDS011;21420;52.196;21.416;2022-11-25T11:21:57;61.00;;;29.05;;
35306;SDS011;21420;52.196;21.416;2022-11-25T11:24:39;53.20;;;27.60;;
35306;SDS011;21420;52.196;21.416;2022-11-25T11:29:45;62.78;;;30.20;;
35306;SDS011;21420;52.196;21.416;2022-11-25T11:32:21;60.52;;;30.27;;
35306;SDS011;21420;52.196;21.416;2022-11-25T11:35:03;63.68;;;31.12;;
35306;SDS011;21420;52.196;21.416;2022-11-25T11:37:44;59.67;;;30.43;;
35306;SDS011;21420;52.196;21.416;2022-11-25T11:40:21;66.28;;;30.50;;
35306;SDS011;21420;52.196;21.416;2022-11-25T11:43:11;62.10;;;32.23;;
35306;SDS011;21420;52.196;21.416;2022-11-25T11:48:39;61.30;;;29.95;;
35306;SDS011;21420;52.196;21.416;2022-11-25T11:53:59;73.83;;;31.90;;
35306;SDS011;21420;52.196;21.416;2022-11-25T11:56:49;70.85;;;32.15;;
35306;SDS011;21420;52.196;21.416;2022-11-25T11:59:45;68.87;;;31.27;;
35306;SDS011;21420;52.196;21.416;2022-11-25T12:02:16;67.90;;;32.15;;
35306;SDS011;21420;52.196;21.416;2022-11-25T12:04:50;63.90;;;32.05;;
35306;SDS011;21420;52.196;21.416;2022-11-25T12:07:42;65.35;;;32.73;;
35306;SDS011;21420;52.196;21.416;2022-11-25T12:10:24;67.25;;;30.75;;
35306;SDS011;21420;52.196;21.416;2022-11-25T12:13:10;68.07;;;32.17;;
35306;SDS011;21420;52.196;21.416;2022-11-25T12:24:28;93.92;;;38.95;;
35306;SDS011;21420;52.196;21.416;2022-11-25T12:29:46;69.10;;;33.00;;
35306;SDS011;21420;52.196;21.416;2022-11-25T12:35:27;78.45;;;38.17;;
35306;SDS011;21420;52.196;21.416;2022-11-25T12:44:26;87.20;;;42.78;;
35306;SDS011;21420;52.196;21.416;2022-11-25T12:46:57;79.05;;;37.85;;
35306;SDS011;21420;52.196;21.416;2022-11-25T12:49:24;77.97;;;37.50;;
35306;SDS011;21420;52.196;21.416;2022-11-25T12:57:41;76.02;;;37.75;;
35306;SDS011;21420;52.196;21.416;2022-11-25T13:00:30;74.47;;;33.28;;
35306;SDS011;21420;52.196;21.416;2022-11-25T13:15:30;70.35;;;34.40;;
35306;SDS011;21420;52.196;21.416;2022-11-25T13:18:06;68.92;;;34.67;;
35306;SDS011;21420;52.196;21.416;2022-11-25T13:20:44;77.12;;;35.98;;
35306;SDS011;21420;52.196;21.416;2022-11-25T13:31:55;72.62;;;34.78;;
35306;SDS011;21420;52.196;21.416;2022-11-25T13:34:24;74.40;;;36.35;;
35306;SDS011;21420;52.196;21.416;2022-11-25T13:37:00;70.87;;;34.67;;
35306;SDS011;21420;52.196;21.416;2022-11-25T13:42:01;68.87;;;35.20;;
35306;SDS011;21420;52.196;21.416;2022-11-25T13:44:53;67.10;;;35.60;;
35306;SDS011;21420;52.196;21.416;2022-11-25T13:52:47;76.37;;;36.68;;
35306;SDS011;21420;52.196;21.416;2022-11-25T13:58:03;76.95;;;36.85;;
35306;SDS011;21420;52.196;21.416;2022-11-25T14:11:58;81.80;;;43.28;;
35306;SDS011;21420;52.196;21.416;2022-11-25T14:25:57;74.55;;;36.77;;
35306;SDS011;21420;52.196;21.416;2022-11-25T14:28:54;77.58;;;39.10;;
35306;SDS011;21420;52.196;21.416;2022-11-25T14:31:26;73.95;;;37.70;;
35306;SDS011;21420;52.196;21.416;2022-11-25T14:34:11;76.02;;;38.58;;
35306;SDS011;21420;52.196;21.416;2022-11-25T14:36:59;80.15;;;38.30;;
35306;SDS011;21420;52.196;21.416;2022-11-25T14:42:41;75.10;;;36.93;;
35306;SDS011;21420;52.196;21.416;2022-11-25T14:47:46;80.75;;;41.23;;
35306;SDS011;21420;52.196;21.416;2022-11-25T14:50:13;86.00;;;44.00;;
35306;SDS011;21420;52.196;21.416;2022-11-25T14:52:40;91.12;;;47.70;;
35306;SDS011;21420;52.196;21.416;2022-11-25T14:55:12;87.90;;;47.55;;
35306;SDS011;21420;52.196;21.416;2022-11-25T14:57:54;83.25;;;44.30;;
35306;SDS011;21420;52.196;21.416;2022-11-25T15:00:21;87.72;;;46.42;;
35306;SDS011;21420;52.196;21.416;2022-11-25T15:05:29;96.45;;;46.05;;
35306;SDS011;21420;52.196;21.416;2022-11-25T15:07:59;103.78;;;48.75;;
35306;SDS011;21420;52.196;21.416;2022-11-25T15:13:37;109.05;;;52.40;;
35306;SDS011;21420;52.196;21.416;2022-11-25T15:16:12;126.53;;;64.82;;
35306;SDS011;21420;52.196;21.416;2022-11-25T15:18:49;125.62;;;63.33;;
35306;SDS011;21420;52.196;21.416;2022-11-25T15:21:21;113.03;;;59.75;;
35306;SDS011;21420;52.196;21.416;2022-11-25T15:23:54;101.05;;;52.15;;
35306;SDS011;21420;52.196;21.416;2022-11-25T15:26:25;109.42;;;55.83;;
35306;SDS011;21420;52.196;21.416;2022-11-25T15:28:52;109.60;;;56.77;;
35306;SDS011;21420;52.196;21.416;2022-11-25T15:31:30;89.52;;;49.53;;
35306;SDS011;21420;52.196;21.416;2022-11-25T15:34:01;89.83;;;48.20;;
35306;SDS011;21420;52.196;21.416;2022-11-25T15:36:31;91.87;;;48.58;;
35306;SDS011;21420;52.196;21.416;2022-11-25T15:42:01;103.00;;;52.17;;
35306;SDS011;21420;52.196;21.416;2022-11-25T15:44:47;93.37;;;47.33;;
35306;SDS011;21420;52.196;21.416;2022-11-25T15:49:52;84.40;;;44.13;;
35306;SDS011;21420;52.196;21.416;2022-11-25T15:52:28;87.20;;;43.87;;
35306;SDS011;21420;52.196;21.416;2022-11-25T15:55:01;88.12;;;44.25;;
35306;SDS011;21420;52.196;21.416;2022-11-25T15:57:35;85.38;;;44.90;;
35306;SDS011;21420;52.196;21.416;2022-11-25T16:00:12;83.17;;;45.75;;
35306;SDS011;21420;52.196;21.416;2022-11-25T16:05:16;101.00;;;48.60;;
35306;SDS011;21420;52.196;21.416;2022-11-25T16:10:32;106.45;;;55.08;;
35306;SDS011;21420;52.196;21.416;2022-11-25T16:21:52;108.35;;;55.70;;
35306;SDS011;21420;52.196;21.416;2022-11-25T16:26:59;112.60;;;55.23;;
35306;SDS011;21420;52.196;21.416;2022-11-25T16:29:33;140.12;;;87.47;;
35306;SDS011;21420;52.196;21.416;2022-11-25T16:32:13;115.72;;;59.93;;
35306;SDS011;21420;52.196;21.416;2022-11-25T16:34:45;99.87;;;51.77;;
35306;SDS011;21420;52.196;21.416;2022-11-25T16:37:11;91.78;;;52.53;;
35306;SDS011;21420;52.196;21.416;2022-11-25T16:39:38;108.42;;;55.73;;
35306;SDS011;21420;52.196;21.416;2022-11-25T16:42:05;96.37;;;49.55;;
35306;SDS011;21420;52.196;21.416;2022-11-25T16:44:32;96.57;;;50.65;;
35306;SDS011;21420;52.196;21.416;2022-11-25T16:47:01;97.13;;;48.73;;
35306;SDS011;21420;52.196;21.416;2022-11-25T16:49:29;99.90;;;51.18;;
35306;SDS011;21420;52.196;21.416;2022-11-25T16:51:56;88.35;;;48.70;;
35306;SDS011;21420;52.196;21.416;2022-11-25T16:54:23;107.67;;;56.80;;
35306;SDS011;21420;52.196;21.416;2022-11-25T16:56:50;89.70;;;48.48;;
35306;SDS011;21420;52.196;21.416;2022-11-25T16:59:21;96.65;;;51.70;;
35306;SDS011;21420;52.196;21.416;2022-11-25T17:01:51;107.58;;;53.02;;
35306;SDS011;21420;52.196;21.416;2022-11-25T17:04:19;109.57;;;55.98;;
35306;SDS011;21420;52.196;21.416;2022-11-25T17:06:46;115.03;;;57.10;;
35306;SDS011;21420;52.196;21.416;2022-11-25T17:09:12;112.42;;;53.48;;
35306;SDS011;21420;52.196;21.416;2022-11-25T17:11:44;107.63;;;53.87;;
35306;SDS011;21420;52.196;21.416;2022-11-25T17:14:12;111.45;;;55.00;;
35306;SDS011;21420;52.196;21.416;2022-11-25T17:16:52;115.05;;;53.65;;
35306;SDS011;21420;52.196;21.416;2022-11-25T17:19:19;108.40;;;53.23;;
35306;SDS011;21420;52.196;21.416;2022-11-25T17:21:45;137.28;;;84.55;;
35306;SDS011;21420;52.196;21.416;2022-11-25T17:24:17;113.85;;;56.23;;
35306;SDS011;21420;52.196;21.416;2022-11-25T17:26:43;106.67;;;51.98;;
35306;SDS011;21420;52.196;21.416;2022-11-25T17:29:19;113.60;;;55.10;;
35306;SDS011;21420;52.196;21.416;2022-11-25T17:31:45;110.78;;;54.90;;
35306;SDS011;21420;52.196;21.416;2022-11-25T17:34:12;109.15;;;50.85;;